createdAt,value
2023-04-12T00:00:35.557Z,21.36
2023-04-12T00:01:35.617Z,21.28
2023-04-12T00:02:35.872Z,21.32
2023-04-12T00:03:35.901Z,21.35
2023-04-12T00:04:35.960Z,21.33
2023-04-12T00:05:35.835Z,21.35
2023-04-12T00:06:35.846Z,21.32
2023-04-12T00:07:35.945Z,21.33
2023-04-12T00:08:36.005Z,21.32
2023-04-12T00:09:36.006Z,21.35
2023-04-12T00:10:36.093Z,21.33
2023-04-12T00:11:36.138Z,21.30
2023-04-12T00:12:36.225Z,21.33
2023-04-12T00:13:36.231Z,21.32
2023-04-12T00:14:36.327Z,21.33
2023-04-12T00:15:36.407Z,21.28
2023-04-12T00:16:36.420Z,21.27
2023-04-12T00:17:36.538Z,21.32
2023-04-12T00:18:36.556Z,21.30
2023-04-12T00:19:36.590Z,21.27
2023-04-12T00:20:36.666Z,21.27
2023-04-12T00:21:36.686Z,21.27
2023-04-12T00:22:36.777Z,21.28
2023-04-12T00:23:36.892Z,21.24
2023-04-12T00:24:36.895Z,21.25
2023-04-12T00:25:36.943Z,21.28
2023-04-12T00:26:37.016Z,21.25
2023-04-12T00:27:37.042Z,21.30
2023-04-12T00:28:37.116Z,21.24
2023-04-12T00:29:37.190Z,21.28
2023-04-12T00:30:37.230Z,21.24
2023-04-12T00:31:37.383Z,21.24
2023-04-12T00:32:37.424Z,21.22
2023-04-12T00:33:37.400Z,21.22
2023-04-12T00:34:37.467Z,21.24
2023-04-12T00:35:37.553Z,21.25
2023-04-12T00:36:37.587Z,21.22
2023-04-12T00:37:37.632Z,21.25
2023-04-12T00:38:37.724Z,21.27
2023-04-12T00:39:37.715Z,21.21
2023-04-12T00:40:37.797Z,21.25
2023-04-12T00:41:37.826Z,21.22
2023-04-12T00:42:37.885Z,21.24
2023-04-12T00:43:37.923Z,21.21
2023-04-12T00:44:37.969Z,21.19
2023-04-12T00:45:38.059Z,21.24
2023-04-12T00:46:38.132Z,21.19
2023-04-12T00:47:38.249Z,21.19
2023-04-12T00:48:38.157Z,21.21
2023-04-12T00:49:38.243Z,21.19
2023-04-12T00:50:38.266Z,21.16
2023-04-12T00:51:38.331Z,21.18
2023-04-12T00:52:38.406Z,21.21
2023-04-12T00:53:38.478Z,21.13
2023-04-12T00:54:38.499Z,21.15
2023-04-12T00:55:38.551Z,21.15
2023-04-12T00:56:38.643Z,21.21
2023-04-12T00:57:38.671Z,21.19
2023-04-12T00:58:38.801Z,21.12
2023-04-12T00:59:38.801Z,21.18
2023-04-12T01:00:38.851Z,21.19
2023-04-12T01:01:38.961Z,21.16
2023-04-12T01:02:39.177Z,21.15
2023-04-12T01:03:39.233Z,21.18
2023-04-12T01:04:39.097Z,21.15
2023-04-12T01:05:39.160Z,21.10
2023-04-12T01:06:39.245Z,21.15
2023-04-12T01:07:39.306Z,21.12
2023-04-12T01:08:39.310Z,21.19
2023-04-12T01:09:39.377Z,21.15
2023-04-12T01:10:39.415Z,21.13
2023-04-12T01:11:39.476Z,21.13
2023-04-12T01:12:39.536Z,21.12
2023-04-12T01:13:39.585Z,21.07
2023-04-12T01:14:39.656Z,21.10
2023-04-12T01:15:39.728Z,21.09
2023-04-12T01:16:39.870Z,21.10
2023-04-12T01:17:39.955Z,21.12
2023-04-12T01:18:39.941Z,21.10
2023-04-12T01:19:39.970Z,21.12
2023-04-12T01:20:40.042Z,21.08
2023-04-12T01:21:40.063Z,21.07
2023-04-12T01:22:40.173Z,21.10
2023-04-12T01:23:40.199Z,21.06
2023-04-12T01:24:40.255Z,20.98
2023-04-12T01:25:40.283Z,21.10
2023-04-12T01:26:40.366Z,21.09
2023-04-12T01:27:40.444Z,21.03
2023-04-12T01:28:40.497Z,21.06
2023-04-12T01:29:40.554Z,21.09
2023-04-12T01:30:40.578Z,21.10
2023-04-12T01:31:40.657Z,21.06
2023-04-12T01:32:40.742Z,21.06
2023-04-12T01:33:40.778Z,21.04
2023-04-12T01:34:40.831Z,21.03
2023-04-12T01:35:40.888Z,21.06
2023-04-12T01:36:40.933Z,21.03
2023-04-12T01:37:40.996Z,21.06
2023-04-12T01:38:41.077Z,21.04
2023-04-12T01:39:41.122Z,21.07
2023-04-12T01:40:41.174Z,21.04
2023-04-12T01:41:41.240Z,21.07
2023-04-12T01:42:41.354Z,21.03
2023-04-12T01:43:41.417Z,20.98
2023-04-12T01:44:41.461Z,21.04
2023-04-12T01:45:41.531Z,21.04
2023-04-12T01:46:41.570Z,21.03
2023-04-12T01:47:41.705Z,20.99
2023-04-12T01:48:41.708Z,21.03
2023-04-12T01:49:41.745Z,21.03
2023-04-12T01:50:41.827Z,21.01
2023-04-12T01:51:41.857Z,21.01
2023-04-12T01:52:41.935Z,21.04
2023-04-12T01:53:41.970Z,20.97
2023-04-12T01:54:42.002Z,21.00
2023-04-12T01:55:42.084Z,21.00
2023-04-12T01:56:42.172Z,20.99
2023-04-12T01:57:42.208Z,21.01
2023-04-12T01:58:42.285Z,20.98
2023-04-12T01:59:42.335Z,21.03
2023-04-12T02:00:42.334Z,20.97
2023-04-12T02:01:42.520Z,21.01
2023-04-12T02:02:42.583Z,20.99
2023-04-12T02:03:42.838Z,21.03
2023-04-12T02:04:42.600Z,20.95
2023-04-12T02:05:42.631Z,20.98
2023-04-12T02:06:42.720Z,20.97
2023-04-12T02:07:42.790Z,20.98
2023-04-12T02:08:42.826Z,20.95
2023-04-12T02:09:42.909Z,21.00
2023-04-12T02:10:42.885Z,21.00
2023-04-12T02:11:42.942Z,20.97
2023-04-12T02:12:43.025Z,21.00
2023-04-12T02:13:43.095Z,20.94
2023-04-12T02:14:43.123Z,20.95
2023-04-12T02:15:43.215Z,20.94
2023-04-12T02:16:43.267Z,20.95
2023-04-12T02:17:43.338Z,20.98
2023-04-12T02:18:43.372Z,20.95
2023-04-12T02:19:43.453Z,20.97
2023-04-12T02:20:43.475Z,20.95
2023-04-12T02:21:43.529Z,20.97
2023-04-12T02:22:43.564Z,20.98
2023-04-12T02:23:43.604Z,21.00
2023-04-12T02:24:43.624Z,20.91
2023-04-12T02:25:43.695Z,20.94
2023-04-12T02:26:43.749Z,20.98
2023-04-12T02:27:43.815Z,20.89
2023-04-12T02:28:43.849Z,20.92
2023-04-12T02:29:43.886Z,20.89
2023-04-12T02:30:44.009Z,20.95
2023-04-12T02:31:44.045Z,20.91
2023-04-12T02:32:44.229Z,20.91
2023-04-12T02:33:44.132Z,20.91
2023-04-12T02:34:44.179Z,20.94
2023-04-12T02:35:44.287Z,20.95
2023-04-12T02:36:44.287Z,20.92
2023-04-12T02:37:44.356Z,20.91
2023-04-12T02:38:44.390Z,20.92
2023-04-12T02:39:44.475Z,20.98
2023-04-12T02:40:44.550Z,20.91
2023-04-12T02:41:44.574Z,20.85
2023-04-12T02:42:44.687Z,20.89
2023-04-12T02:43:44.687Z,20.89
2023-04-12T02:44:44.725Z,20.92
2023-04-12T02:45:44.798Z,20.94
2023-04-12T02:46:44.856Z,20.89
2023-04-12T02:47:45.001Z,20.94
2023-04-12T02:48:44.965Z,20.88
2023-04-12T02:49:44.993Z,20.92
2023-04-12T02:50:45.092Z,20.89
2023-04-12T02:51:45.128Z,20.91
2023-04-12T02:52:45.396Z,20.91
2023-04-12T02:53:45.164Z,20.91
2023-04-12T02:54:45.253Z,20.92
2023-04-12T02:55:45.324Z,20.88
2023-04-12T02:56:45.321Z,20.92
2023-04-12T02:57:45.406Z,20.88
2023-04-12T02:58:45.468Z,20.91
2023-04-12T02:59:45.493Z,20.86
2023-04-12T03:00:45.538Z,20.92
2023-04-12T03:01:45.686Z,20.88
2023-04-12T03:02:45.753Z,20.91
2023-04-12T03:03:45.750Z,20.86
2023-04-12T03:04:45.729Z,20.85
2023-04-12T03:05:45.748Z,20.89
2023-04-12T03:06:45.791Z,20.88
2023-04-12T03:07:45.872Z,20.84
2023-04-12T03:08:45.957Z,20.91
2023-04-12T03:09:45.950Z,20.88
2023-04-12T03:10:45.998Z,20.88
2023-04-12T03:11:46.007Z,20.84
2023-04-12T03:12:46.045Z,20.91
2023-04-12T03:13:46.108Z,20.84
2023-04-12T03:14:46.202Z,20.88
2023-04-12T03:15:46.260Z,20.92
2023-04-12T03:16:46.294Z,20.89
2023-04-12T03:17:46.330Z,20.86
2023-04-12T03:18:46.439Z,20.88
2023-04-12T03:19:46.485Z,20.88
2023-04-12T03:20:47.772Z,20.86
2023-04-12T03:21:46.535Z,20.86
2023-04-12T03:22:46.601Z,20.78
2023-04-12T03:23:46.647Z,20.84
2023-04-12T03:24:46.662Z,20.85
2023-04-12T03:25:46.780Z,20.88
2023-04-12T03:26:46.803Z,20.84
2023-04-12T03:27:46.863Z,20.89
2023-04-12T03:28:46.911Z,20.88
2023-04-12T03:29:47.761Z,20.83
2023-04-12T03:30:46.977Z,20.83
2023-04-12T03:31:47.022Z,20.85
2023-04-12T03:32:47.187Z,20.84
2023-04-12T03:33:47.137Z,20.84
2023-04-12T03:34:47.181Z,20.81
2023-04-12T03:35:47.248Z,20.81
2023-04-12T03:36:47.276Z,20.81
2023-04-12T03:37:47.323Z,20.85
2023-04-12T03:38:47.328Z,20.83
2023-04-12T03:39:47.399Z,20.86
2023-04-12T03:40:47.426Z,20.85
2023-04-12T03:41:47.501Z,20.84
2023-04-12T03:42:47.549Z,20.84
2023-04-12T03:43:47.648Z,20.86
2023-04-12T03:44:47.613Z,20.83
2023-04-12T03:45:47.660Z,20.88
2023-04-12T03:46:47.753Z,20.81
2023-04-12T03:47:47.843Z,20.86
2023-04-12T03:48:47.805Z,20.86
2023-04-12T03:50:01.789Z,20.86
2023-04-12T03:50:48.834Z,20.83
2023-04-12T03:51:47.806Z,20.83
2023-04-12T03:52:47.838Z,20.85
2023-04-12T03:53:47.822Z,20.81
2023-04-12T03:54:47.843Z,20.81
2023-04-12T03:55:47.851Z,20.89
2023-04-12T03:56:47.813Z,20.88
2023-04-12T03:57:47.792Z,20.81
2023-04-12T03:58:47.826Z,20.78
2023-04-12T03:59:47.772Z,20.86
2023-04-12T04:00:47.780Z,20.84
2023-04-12T04:01:47.884Z,20.86
2023-04-12T04:02:47.956Z,20.83
2023-04-12T04:03:48.203Z,20.81
2023-04-12T04:04:48.015Z,20.80
2023-04-12T04:05:48.055Z,20.84
2023-04-12T04:06:48.100Z,20.81
2023-04-12T04:07:48.164Z,20.83
2023-04-12T04:08:48.239Z,20.83
2023-04-12T04:09:48.251Z,20.85
2023-04-12T04:10:48.307Z,20.80
2023-04-12T04:11:48.379Z,20.84
2023-04-12T04:12:48.422Z,20.77
2023-04-12T04:13:48.487Z,20.78
2023-04-12T04:14:48.511Z,20.81
2023-04-12T04:15:48.567Z,20.83
2023-04-12T04:16:48.670Z,20.78
2023-04-12T04:17:48.699Z,20.84
2023-04-12T04:18:48.699Z,20.84
2023-04-12T04:19:48.732Z,20.78
2023-04-12T04:20:48.789Z,20.80
2023-04-12T04:21:48.893Z,20.85
2023-04-12T04:22:48.924Z,20.83
2023-04-12T04:23:48.953Z,20.83
2023-04-12T04:24:49.071Z,20.83
2023-04-12T04:25:49.121Z,20.83
2023-04-12T04:26:49.139Z,20.86
2023-04-12T04:27:49.231Z,20.83
2023-04-12T04:28:49.238Z,20.83
2023-04-12T04:29:49.285Z,20.83
2023-04-12T04:30:49.306Z,20.83
2023-04-12T04:31:49.437Z,20.86
2023-04-12T04:32:49.419Z,20.81
2023-04-12T04:33:49.450Z,20.81
2023-04-12T04:34:49.512Z,20.84
2023-04-12T04:35:49.645Z,20.85
2023-04-12T04:36:49.624Z,20.84
2023-04-12T04:37:49.715Z,20.81
2023-04-12T04:38:49.752Z,20.83
2023-04-12T04:39:49.788Z,20.80
2023-04-12T04:40:49.832Z,20.85
2023-04-12T04:41:49.862Z,20.83
2023-04-12T04:42:49.938Z,20.85
2023-04-12T04:43:50.025Z,20.86
2023-04-12T04:44:50.069Z,20.81
2023-04-12T04:45:50.253Z,20.85
2023-04-12T04:46:50.157Z,20.81
2023-04-12T04:47:50.284Z,20.80
2023-04-12T04:48:50.293Z,20.85
2023-04-12T04:49:50.325Z,20.77
2023-04-12T04:50:50.390Z,20.82
2023-04-12T04:51:50.435Z,20.88
2023-04-12T04:52:50.493Z,20.82
2023-04-12T04:53:50.555Z,20.82
2023-04-12T04:54:50.630Z,20.81
2023-04-12T04:55:50.659Z,20.79
2023-04-12T04:56:50.687Z,20.73
2023-04-12T04:57:50.775Z,20.77
2023-04-12T04:58:50.813Z,20.73
2023-04-12T04:59:50.865Z,20.75
2023-04-12T05:00:57.948Z,20.77
2023-04-12T05:01:51.034Z,20.77
2023-04-12T05:02:51.033Z,20.76
2023-04-12T05:03:51.039Z,20.73
2023-04-12T05:04:50.923Z,20.77
2023-04-12T05:05:50.909Z,20.81
2023-04-12T05:06:50.936Z,20.77
2023-04-12T05:07:50.917Z,20.73
2023-04-12T05:08:50.939Z,20.79
2023-04-12T05:09:50.910Z,20.75
2023-04-12T05:10:50.904Z,20.70
2023-04-12T05:11:50.923Z,20.73
2023-04-12T05:12:50.913Z,20.73
2023-04-12T05:13:50.935Z,20.73
2023-04-12T05:14:51.894Z,20.72
2023-04-12T05:15:50.962Z,20.72
2023-04-12T05:16:51.008Z,20.76
2023-04-12T05:17:50.886Z,20.72
2023-04-12T05:18:50.923Z,20.75
2023-04-12T05:19:50.870Z,20.74
2023-04-12T05:20:50.900Z,20.72
2023-04-12T05:21:50.890Z,20.70
2023-04-12T05:22:50.882Z,20.72
2023-04-12T05:23:50.921Z,20.70
2023-04-12T05:24:50.863Z,20.72
2023-04-12T05:25:50.863Z,20.67
2023-04-12T05:26:50.853Z,20.74
2023-04-12T05:27:52.209Z,20.75
2023-04-12T05:28:50.853Z,20.75
2023-04-12T05:29:50.899Z,20.75
2023-04-12T05:30:51.005Z,20.74
2023-04-12T05:31:51.045Z,20.71
2023-04-12T05:32:51.108Z,20.71
2023-04-12T05:33:51.326Z,20.71
2023-04-12T05:34:51.192Z,21.25
2023-04-12T05:35:51.250Z,21.43
2023-04-12T05:36:51.256Z,22.25
2023-04-12T05:37:51.314Z,22.24
2023-04-12T05:38:51.848Z,22.34
2023-04-12T05:39:51.423Z,22.47
2023-04-12T05:40:51.556Z,22.45
2023-04-12T05:41:51.561Z,22.57
2023-04-12T05:42:51.545Z,22.84
2023-04-12T05:43:51.832Z,23.16
2023-04-12T05:44:51.613Z,23.51
2023-04-12T05:45:58.673Z,23.67
2023-04-12T05:46:51.700Z,23.45
2023-04-12T05:47:51.734Z,23.37
2023-04-12T05:48:51.913Z,23.41
2023-04-12T05:49:51.754Z,23.22
2023-04-12T05:50:51.753Z,22.90
2023-04-12T05:51:51.736Z,22.76
2023-04-12T05:52:51.720Z,22.96
2023-04-12T05:53:51.703Z,22.67
2023-04-12T05:54:51.868Z,22.44
2023-04-12T05:55:51.772Z,22.31
2023-04-12T05:56:51.729Z,22.17
2023-04-12T05:57:51.714Z,22.06
2023-04-12T05:58:51.759Z,22.19
2023-04-12T05:59:51.769Z,22.11
2023-04-12T06:00:51.763Z,21.94
2023-04-12T06:01:51.789Z,22.15
2023-04-12T06:02:52.510Z,21.85
2023-04-12T06:03:51.948Z,21.89
2023-04-12T06:04:52.110Z,21.82
2023-04-12T06:05:51.781Z,21.92
2023-04-12T06:06:51.851Z,21.91
2023-04-12T06:07:51.743Z,21.95
2023-04-12T06:08:51.834Z,21.89
2023-04-12T06:09:51.853Z,21.94
2023-04-12T06:10:51.781Z,21.83
2023-04-12T06:11:51.820Z,21.72
2023-04-12T06:12:51.777Z,21.81
2023-04-12T06:13:51.802Z,21.77
2023-04-12T06:14:51.817Z,21.75
2023-04-12T06:15:51.932Z,21.72
2023-04-12T06:16:51.801Z,21.81
2023-04-12T06:17:51.875Z,21.78
2023-04-12T06:18:51.814Z,21.96
2023-04-12T06:19:51.806Z,21.96
2023-04-12T06:20:51.829Z,21.91
2023-04-12T06:21:51.896Z,21.88
2023-04-12T06:22:51.864Z,21.82
2023-04-12T06:23:51.866Z,21.96
2023-04-12T06:24:51.849Z,21.90
2023-04-12T06:25:51.871Z,21.96
2023-04-12T06:26:51.893Z,21.74
2023-04-12T06:27:52.864Z,21.80
2023-04-12T06:28:52.116Z,21.86
2023-04-12T06:29:52.599Z,21.95
2023-04-12T06:30:52.526Z,22.01
2023-04-12T06:31:52.464Z,21.92
2023-04-12T06:32:52.178Z,21.89
2023-04-12T06:33:51.944Z,21.88
2023-04-12T06:34:51.985Z,21.87
2023-04-12T06:35:51.959Z,21.86
2023-04-12T06:36:52.022Z,21.90
2023-04-12T06:37:52.003Z,22.73
2023-04-12T06:38:52.023Z,23.39
2023-04-12T06:39:52.539Z,23.55
2023-04-12T06:40:51.984Z,24.07
2023-04-12T06:41:52.036Z,23.97
2023-04-12T06:42:52.094Z,24.16
2023-04-12T06:43:52.094Z,24.20
2023-04-12T06:44:52.161Z,24.23
2023-04-12T06:45:52.160Z,24.10
2023-04-12T06:46:52.191Z,24.13
2023-04-12T06:47:52.200Z,23.84
2023-04-12T06:48:52.379Z,23.43
2023-04-12T06:49:54.126Z,23.57
2023-04-12T06:50:52.302Z,23.59
2023-04-12T06:51:52.259Z,23.21
2023-04-12T06:52:52.273Z,23.57
2023-04-12T06:53:52.277Z,23.76
2023-04-12T06:54:52.339Z,24.26
2023-04-12T06:55:52.323Z,24.89
2023-04-12T06:56:52.343Z,25.28
2023-04-12T06:57:52.356Z,25.09
2023-04-12T06:58:52.350Z,25.16
2023-04-12T06:59:52.369Z,25.09
2023-04-12T07:00:52.400Z,25.21
2023-04-12T07:01:52.423Z,25.53
2023-04-12T07:02:52.808Z,25.32
2023-04-12T07:03:52.557Z,25.41
2023-04-12T07:04:52.428Z,25.42
2023-04-12T07:05:52.426Z,25.29
2023-04-12T07:06:52.461Z,25.41
2023-04-12T07:07:52.474Z,25.35
2023-04-12T07:08:52.494Z,25.42
2023-04-12T07:09:52.561Z,25.36
2023-04-12T07:10:52.547Z,25.56
2023-04-12T07:11:52.550Z,25.35
2023-04-12T07:12:52.489Z,25.52
2023-04-12T07:13:52.504Z,25.50
2023-04-12T07:14:52.576Z,25.52
2023-04-12T07:15:52.556Z,25.45
2023-04-12T07:16:52.743Z,25.33
2023-04-12T07:17:52.634Z,25.21
2023-04-12T07:18:52.604Z,25.31
2023-04-12T07:19:52.596Z,25.23
2023-04-12T07:20:52.628Z,25.14
2023-04-12T07:21:52.585Z,25.17
2023-04-12T07:22:52.586Z,25.04
2023-04-12T07:23:52.642Z,25.10
2023-04-12T07:24:52.651Z,25.11
2023-04-12T07:25:52.659Z,24.92
2023-04-12T07:26:52.664Z,25.00
2023-04-12T07:27:52.654Z,24.99
2023-04-12T07:28:52.677Z,24.93
2023-04-12T07:29:52.696Z,25.04
2023-04-12T07:30:52.707Z,25.06
2023-04-12T07:31:52.676Z,25.37
2023-04-12T07:32:52.733Z,25.65
2023-04-12T07:33:52.862Z,25.73
2023-04-12T07:34:52.843Z,25.60
2023-04-12T07:35:52.805Z,25.61
2023-04-12T07:36:52.732Z,25.67
2023-04-12T07:37:52.904Z,25.67
2023-04-12T07:38:52.746Z,25.71
2023-04-12T07:39:52.771Z,25.98
2023-04-12T07:40:52.714Z,26.05
2023-04-12T07:41:52.790Z,25.92
2023-04-12T07:42:52.728Z,25.87
2023-04-12T07:43:52.697Z,25.81
2023-04-12T07:44:52.742Z,25.94
2023-04-12T07:45:52.763Z,26.07
2023-04-12T07:46:52.733Z,26.11
2023-04-12T07:47:52.849Z,26.30
2023-04-12T07:48:52.759Z,26.55
2023-04-12T07:49:52.861Z,26.55
2023-04-12T07:50:52.717Z,26.69
2023-04-12T07:51:52.825Z,25.64
2023-04-12T07:52:52.726Z,24.92
2023-04-12T07:53:52.752Z,24.51
2023-04-12T07:54:52.759Z,24.12
2023-04-12T07:55:52.760Z,24.28
2023-04-12T07:56:52.820Z,24.12
2023-04-12T07:57:52.857Z,24.11
2023-04-12T07:58:52.924Z,23.91
2023-04-12T07:59:53.359Z,23.72
2023-04-12T08:00:52.962Z,23.82
2023-04-12T08:01:52.970Z,23.77
2023-04-12T08:02:53.094Z,23.81
2023-04-12T08:03:53.238Z,23.91
2023-04-12T08:04:53.127Z,24.30
2023-04-12T08:05:53.317Z,24.44
2023-04-12T08:06:53.241Z,24.58
2023-04-12T08:07:53.248Z,24.58
2023-04-12T08:08:53.295Z,24.52
2023-04-12T08:09:53.376Z,24.56
2023-04-12T08:10:53.341Z,24.71
2023-04-12T08:11:53.377Z,24.66
2023-04-12T08:12:53.502Z,24.68
2023-04-12T08:13:53.500Z,24.69
2023-04-12T08:14:53.479Z,24.59
2023-04-12T08:15:53.594Z,24.61
2023-04-12T08:16:53.555Z,24.59
2023-04-12T08:17:53.618Z,24.73
2023-04-12T08:18:53.643Z,24.77
2023-04-12T08:19:53.673Z,24.71
2023-04-12T08:20:53.673Z,24.87
2023-04-12T08:21:53.713Z,24.68
2023-04-12T08:22:53.759Z,24.85
2023-04-12T08:23:53.820Z,24.96
2023-04-12T08:24:53.874Z,24.93
2023-04-12T08:25:53.874Z,24.93
2023-04-12T08:26:53.881Z,24.83
2023-04-12T08:27:53.954Z,24.85
2023-04-12T08:28:54.014Z,24.72
2023-04-12T08:29:54.412Z,24.77
2023-04-12T08:30:54.081Z,24.78
2023-04-12T08:31:54.079Z,24.89
2023-04-12T08:32:54.210Z,24.99
2023-04-12T08:33:54.150Z,24.41
2023-04-12T08:34:54.222Z,24.55
2023-04-12T08:35:54.465Z,24.67
2023-04-12T08:36:54.224Z,24.89
2023-04-12T08:37:54.280Z,24.95
2023-04-12T08:38:54.285Z,25.01
2023-04-12T08:39:54.314Z,25.25
2023-04-12T08:40:54.323Z,24.88
2023-04-12T08:41:54.467Z,25.13
2023-04-12T08:42:56.013Z,25.43
2023-04-12T08:43:54.413Z,25.54
2023-04-12T08:44:54.852Z,25.54
2023-04-12T08:45:54.493Z,25.56
2023-04-12T08:46:54.612Z,25.14
2023-04-12T08:47:54.619Z,24.81
2023-04-12T08:48:54.599Z,25.06
2023-04-12T08:49:54.661Z,25.22
2023-04-12T08:50:54.726Z,25.32
2023-04-12T08:51:54.739Z,25.55
2023-04-12T08:52:54.834Z,25.60
2023-04-12T08:53:54.832Z,25.59
2023-04-12T08:54:54.882Z,25.50
2023-04-12T08:55:54.958Z,25.53
2023-04-12T08:56:55.020Z,25.58
2023-04-12T08:57:54.997Z,25.59
2023-04-12T08:58:55.066Z,25.63
2023-04-12T08:59:55.138Z,25.65
2023-04-12T09:00:55.401Z,25.68
2023-04-12T09:01:55.344Z,25.68
2023-04-12T09:02:55.395Z,25.78
2023-04-12T09:03:55.742Z,25.74
2023-04-12T09:04:55.460Z,25.76
2023-04-12T09:05:55.413Z,25.79
2023-04-12T09:06:55.441Z,25.74
2023-04-12T09:07:55.499Z,25.76
2023-04-12T09:08:55.516Z,25.81
2023-04-12T09:09:55.521Z,25.78
2023-04-12T09:10:55.943Z,25.83
2023-04-12T09:11:55.578Z,25.74
2023-04-12T09:12:55.593Z,25.79
2023-04-12T09:13:55.795Z,25.88
2023-04-12T09:14:55.649Z,25.89
2023-04-12T09:15:55.675Z,25.78
2023-04-12T09:16:55.730Z,25.82
2023-04-12T09:17:55.777Z,25.85
2023-04-12T09:18:55.966Z,25.91
2023-04-12T09:19:55.799Z,25.96
2023-04-12T09:20:55.826Z,25.96
2023-04-12T09:21:55.852Z,26.03
2023-04-12T09:22:55.873Z,25.99
2023-04-12T09:23:56.080Z,26.02
2023-04-12T09:24:55.856Z,26.05
2023-04-12T09:25:56.446Z,25.99
2023-04-12T09:26:55.910Z,26.07
2023-04-12T09:27:55.950Z,26.07
2023-04-12T09:28:55.910Z,26.04
2023-04-12T09:29:56.301Z,26.17
2023-04-12T09:30:55.996Z,26.11
2023-04-12T09:31:56.032Z,26.10
2023-04-12T09:32:56.015Z,26.13
2023-04-12T09:33:56.168Z,26.14
2023-04-12T09:34:56.013Z,26.15
2023-04-12T09:35:56.028Z,26.16
2023-04-12T09:36:56.082Z,26.17
2023-04-12T09:37:56.077Z,26.31
2023-04-12T09:38:56.049Z,26.22
2023-04-12T09:39:56.068Z,26.26
2023-04-12T09:40:56.450Z,26.17
2023-04-12T09:41:56.095Z,26.15
2023-04-12T09:42:56.112Z,26.31
2023-04-12T09:43:56.688Z,25.52
2023-04-12T09:44:56.127Z,25.15
2023-04-12T09:45:56.087Z,25.28
2023-04-12T09:46:56.281Z,25.06
2023-04-12T09:47:56.139Z,25.01
2023-04-12T09:48:56.160Z,25.32
2023-04-12T09:49:56.139Z,25.20
2023-04-12T09:50:56.153Z,25.29
2023-04-12T09:51:57.593Z,25.15
2023-04-12T09:52:56.265Z,25.35
2023-04-12T09:53:56.447Z,25.32
2023-04-12T09:54:56.196Z,25.09
2023-04-12T09:55:56.265Z,24.98
2023-04-12T09:56:56.362Z,25.19
2023-04-12T09:57:56.188Z,24.59
2023-04-12T09:58:56.446Z,24.52
2023-04-12T09:59:56.288Z,24.25
2023-04-12T10:00:56.179Z,24.33
2023-04-12T10:01:56.341Z,24.28
2023-04-12T10:02:56.508Z,24.19
2023-04-12T10:03:56.402Z,23.75
2023-04-12T10:04:56.199Z,24.10
2023-04-12T10:05:57.468Z,23.48
2023-04-12T10:06:56.493Z,23.54
2023-04-12T10:07:56.076Z,23.38
2023-04-12T10:08:56.299Z,23.44
2023-04-12T10:09:56.045Z,22.76
2023-04-12T10:10:56.046Z,23.09
2023-04-12T10:11:55.981Z,23.15
2023-04-12T10:12:56.007Z,22.88
2023-04-12T10:13:56.179Z,22.81
2023-04-12T10:14:55.986Z,23.01
2023-04-12T10:15:56.029Z,22.89
2023-04-12T10:16:55.989Z,22.85
2023-04-12T10:17:56.033Z,22.85
2023-04-12T10:18:56.285Z,22.63
2023-04-12T10:19:55.960Z,22.62
2023-04-12T10:20:56.504Z,22.73
2023-04-12T10:21:55.929Z,22.79
2023-04-12T10:22:55.928Z,22.76
2023-04-12T10:23:55.931Z,22.74
2023-04-12T10:24:55.912Z,22.67
2023-04-12T10:25:55.936Z,22.62
2023-04-12T10:26:56.021Z,22.62
2023-04-12T10:27:56.943Z,22.76
2023-04-12T10:28:56.265Z,22.83
2023-04-12T10:29:56.109Z,22.81
2023-04-12T10:30:56.480Z,22.80
2023-04-12T10:31:56.278Z,22.87
2023-04-12T10:32:56.342Z,22.86
2023-04-12T10:33:56.286Z,22.85
2023-04-12T10:34:56.439Z,22.90
2023-04-12T10:35:56.641Z,22.91
2023-04-12T10:36:56.427Z,22.82
2023-04-12T10:37:56.459Z,22.82
2023-04-12T10:38:56.959Z,22.82
2023-04-12T10:39:56.553Z,22.74
2023-04-12T10:40:56.968Z,22.85
2023-04-12T10:41:56.680Z,22.83
2023-04-12T10:42:56.724Z,22.81
2023-04-12T10:43:56.806Z,22.78
2023-04-12T10:44:58.635Z,22.84
2023-04-12T10:45:56.806Z,22.82
2023-04-12T10:46:56.822Z,22.84
2023-04-12T10:47:57.020Z,22.88
2023-04-12T10:48:57.100Z,22.88
2023-04-12T10:49:56.832Z,22.91
2023-04-12T10:50:56.878Z,22.88
2023-04-12T10:51:56.836Z,22.89
2023-04-12T10:52:56.808Z,22.92
2023-04-12T10:53:56.805Z,22.92
2023-04-12T10:54:56.808Z,22.98
2023-04-12T10:55:56.840Z,22.94
2023-04-12T10:56:57.434Z,22.94
2023-04-12T10:57:56.807Z,22.94
2023-04-12T10:58:57.213Z,23.14
2023-04-12T10:59:57.039Z,23.18
2023-04-12T11:00:56.980Z,23.27
2023-04-12T11:01:56.930Z,23.22
2023-04-12T11:02:57.066Z,23.25
2023-04-12T11:03:57.154Z,23.19
2023-04-12T11:04:56.981Z,23.41
2023-04-12T11:05:56.880Z,23.23
2023-04-12T11:06:59.188Z,23.43
2023-04-12T11:07:56.886Z,23.31
2023-04-12T11:08:57.269Z,23.31
2023-04-12T11:09:56.920Z,23.37
2023-04-12T11:10:57.019Z,23.27
2023-04-12T11:11:56.976Z,23.17
2023-04-12T11:12:56.949Z,23.08
2023-04-12T11:13:56.990Z,23.19
2023-04-12T11:14:56.987Z,23.20
2023-04-12T11:15:57.472Z,23.58
2023-04-12T11:16:57.039Z,23.33
2023-04-12T11:17:57.132Z,23.21
2023-04-12T11:18:57.248Z,23.22
2023-04-12T11:19:57.025Z,23.93
2023-04-12T11:20:57.033Z,24.55
2023-04-12T11:21:57.456Z,24.67
2023-04-12T11:22:57.091Z,24.62
2023-04-12T11:23:57.050Z,24.74
2023-04-12T11:24:57.014Z,24.81
2023-04-12T11:25:57.072Z,25.11
2023-04-12T11:26:57.428Z,25.07
2023-04-12T11:27:57.082Z,24.93
2023-04-12T11:28:57.320Z,25.03
2023-04-12T11:29:57.092Z,25.01
2023-04-12T11:30:57.836Z,25.12
2023-04-12T11:31:57.545Z,25.07
2023-04-12T11:32:57.180Z,24.95
2023-04-12T11:33:57.144Z,24.89
2023-04-12T11:34:57.149Z,24.84
2023-04-12T11:35:57.136Z,24.77
2023-04-12T11:36:57.447Z,24.72
2023-04-12T11:37:57.087Z,24.72
2023-04-12T11:38:57.352Z,24.67
2023-04-12T11:39:57.109Z,24.61
2023-04-12T11:41:51.019Z,24.60
2023-04-12T11:42:51.001Z,24.61
2023-04-12T11:43:51.053Z,24.52
2023-04-12T11:44:56.089Z,24.51
2023-04-12T11:45:52.105Z,24.50
2023-04-12T11:46:51.155Z,24.44
2023-04-12T11:47:51.154Z,24.39
2023-04-12T11:48:51.116Z,24.36
2023-04-12T11:49:51.142Z,24.36
2023-04-12T11:50:59.936Z,24.28
2023-04-12T11:51:52.170Z,24.25
2023-04-12T11:52:51.226Z,24.25
2023-04-12T11:53:51.195Z,24.28
2023-04-12T11:54:51.234Z,24.18
2023-04-12T11:55:51.242Z,24.18
2023-04-12T11:56:51.250Z,24.14
2023-04-12T11:57:51.258Z,24.17
2023-04-12T11:58:51.265Z,24.10
2023-04-12T11:59:51.315Z,24.10
2023-04-12T12:00:51.309Z,24.11
2023-04-12T12:01:51.423Z,24.10
2023-04-12T12:03:06.659Z,24.06
2023-04-12T12:03:52.551Z,24.04
2023-04-12T12:04:51.916Z,24.05
2023-04-12T12:05:51.577Z,24.10
2023-04-12T12:06:52.375Z,24.08
2023-04-12T12:07:51.474Z,24.05
2023-04-12T12:08:51.454Z,24.09
2023-04-12T12:09:51.457Z,23.99
2023-04-12T12:11:51.501Z,23.94
2023-04-12T12:12:51.552Z,23.92
2023-04-12T12:13:51.541Z,23.97
2023-04-12T12:14:51.548Z,23.88
2023-04-12T12:15:51.568Z,23.94
2023-04-12T12:16:51.563Z,23.91
2023-04-12T12:17:51.639Z,23.92
2023-04-12T12:18:52.908Z,23.91
2023-04-12T12:19:51.633Z,23.88
2023-04-12T12:20:51.641Z,23.88
2023-04-12T12:21:51.629Z,23.84
2023-04-12T12:22:51.668Z,23.81
2023-04-12T12:23:51.709Z,23.76
2023-04-12T12:24:51.769Z,23.77
2023-04-12T12:25:57.836Z,23.81
2023-04-12T12:26:52.782Z,23.77
2023-04-12T12:27:51.836Z,23.76
2023-04-12T12:28:51.852Z,23.76
2023-04-12T12:29:51.889Z,23.76
2023-04-12T12:30:51.892Z,23.74
2023-04-12T12:31:52.250Z,23.75
2023-04-12T12:32:51.893Z,23.72
2023-04-12T12:33:51.886Z,23.75
2023-04-12T12:34:51.891Z,23.72
2023-04-12T12:35:51.913Z,23.73
2023-04-12T12:36:51.949Z,23.70
2023-04-12T12:37:51.946Z,23.69
2023-04-12T12:38:51.887Z,23.70
2023-04-12T12:39:51.956Z,23.69
2023-04-12T12:40:51.932Z,23.73
2023-04-12T12:41:51.967Z,23.66
2023-04-12T12:42:51.982Z,23.66
2023-04-12T12:43:51.998Z,23.66
2023-04-12T12:44:52.014Z,23.72
2023-04-12T12:45:52.077Z,23.75
2023-04-12T12:46:56.868Z,23.69
2023-04-12T12:47:53.355Z,23.67
2023-04-12T12:48:52.125Z,23.69
2023-04-12T12:49:52.167Z,23.65
2023-04-12T12:50:52.152Z,23.62
2023-04-12T12:51:52.233Z,23.62
2023-04-12T12:52:52.185Z,23.63
2023-04-12T12:53:52.208Z,23.86
2023-04-12T12:54:52.210Z,23.70